createdAt,value
2017-12-24T00:00:25.873Z,97.86
2017-12-24T00:01:25.741Z,98.52
2017-12-24T00:02:25.605Z,98.61
2017-12-24T00:03:25.473Z,98.52
2017-12-24T00:04:25.342Z,98.43
2017-12-24T00:05:25.209Z,98.61
2017-12-24T00:06:25.077Z,98.14
2017-12-24T00:07:24.946Z,98.24
2017-12-24T00:08:24.811Z,98.14
2017-12-24T00:09:24.679Z,97.86
2017-12-24T00:10:24.547Z,98.52
2017-12-24T00:11:24.412Z,98.24
2017-12-24T00:12:24.281Z,98.43
2017-12-24T00:13:24.149Z,98.52
2017-12-24T00:14:24.018Z,98.33
2017-12-24T00:15:23.884Z,98.61
2017-12-24T00:16:23.752Z,98.05
2017-12-24T00:17:23.619Z,98.33
2017-12-24T00:18:23.487Z,98.33
2017-12-24T00:19:23.354Z,98.14
2017-12-24T00:20:23.219Z,98.71
2017-12-24T00:21:23.090Z,98.24
2017-12-24T00:22:22.958Z,98.14
2017-12-24T00:23:22.826Z,98.24
2017-12-24T00:24:22.692Z,98.14
2017-12-24T00:25:22.562Z,98.14
2017-12-24T00:26:22.430Z,98.14
2017-12-24T00:27:22.294Z,98.14
2017-12-24T00:28:22.164Z,97.77
2017-12-24T00:29:22.031Z,98.24
2017-12-24T00:30:21.898Z,98.52
2017-12-24T00:31:21.767Z,98.43
2017-12-24T00:32:21.632Z,98.52
2017-12-24T00:33:21.503Z,98.14
2017-12-24T00:34:21.369Z,98.14
2017-12-24T00:35:21.236Z,98.14
2017-12-24T00:36:21.101Z,98.33
2017-12-24T00:37:20.969Z,97.96
2017-12-24T00:38:20.835Z,97.86
2017-12-24T00:39:20.701Z,97.77
2017-12-24T00:40:20.573Z,98.05
2017-12-24T00:41:20.438Z,98.33
2017-12-24T00:42:20.306Z,98.14
2017-12-24T00:43:20.173Z,97.58
2017-12-24T00:44:20.040Z,97.39
2017-12-24T00:45:19.909Z,97.29
2017-12-24T00:46:19.775Z,97.20
2017-12-24T00:47:19.646Z,96.63
2017-12-24T00:48:19.509Z,96.54
2017-12-24T00:49:19.382Z,97.01
2017-12-24T00:50:19.245Z,96.44
2017-12-24T00:51:19.114Z,97.01
2017-12-24T00:52:18.984Z,96.73
2017-12-24T00:53:18.848Z,96.35
2017-12-24T00:54:18.714Z,96.54
2017-12-24T00:55:18.583Z,96.82
2017-12-24T00:56:18.453Z,96.91
2017-12-24T00:57:18.317Z,96.91
2017-12-24T00:58:18.187Z,96.82
2017-12-24T00:59:18.054Z,97.10
2017-12-24T01:00:17.919Z,97.48
2017-12-24T01:01:17.788Z,97.20
2017-12-24T01:02:17.655Z,97.20
2017-12-24T01:03:17.522Z,96.63
2017-12-24T01:04:17.390Z,97.20
2017-12-24T01:05:17.259Z,97.01
2017-12-24T01:06:17.134Z,96.63
2017-12-24T01:07:16.993Z,96.73
2017-12-24T01:08:16.859Z,96.63
2017-12-24T01:09:16.727Z,96.44
2017-12-24T01:10:16.595Z,96.54
2017-12-24T01:11:16.463Z,96.82
2017-12-24T01:12:16.330Z,97.10
2017-12-24T01:13:16.196Z,97.01
2017-12-24T01:14:16.062Z,96.35
2017-12-24T01:15:15.932Z,96.54
2017-12-24T01:16:15.798Z,96.16
2017-12-24T01:17:15.666Z,96.44
2017-12-24T01:18:15.535Z,96.35
2017-12-24T01:19:15.401Z,96.16
2017-12-24T01:20:15.267Z,96.16
2017-12-24T01:21:15.134Z,96.06
2017-12-24T01:22:15.005Z,96.25
2017-12-24T01:23:14.869Z,96.16
2017-12-24T01:24:14.736Z,95.87
2017-12-24T01:25:14.604Z,95.97
2017-12-24T01:26:14.469Z,95.78
2017-12-24T01:27:14.339Z,96.16
2017-12-24T01:28:14.204Z,95.78
2017-12-24T01:29:14.073Z,95.87
2017-12-24T01:30:13.938Z,96.16
2017-12-24T01:31:13.808Z,96.16
2017-12-24T01:32:13.676Z,95.97
2017-12-24T01:33:13.541Z,96.06
2017-12-24T01:34:13.407Z,95.97
2017-12-24T01:35:13.276Z,96.35
2017-12-24T01:36:13.143Z,95.87
2017-12-24T01:37:13.015Z,95.97
2017-12-24T01:38:12.880Z,96.06
2017-12-24T01:39:12.745Z,95.40
2017-12-24T01:40:12.615Z,95.40
2017-12-24T01:41:12.481Z,95.21
2017-12-24T01:42:12.348Z,95.31
2017-12-24T01:43:12.216Z,96.16
2017-12-24T01:44:12.084Z,96.16
2017-12-24T01:45:11.948Z,95.40
2017-12-24T01:46:11.815Z,95.21
2017-12-24T01:47:11.686Z,95.73
2017-12-24T01:48:11.551Z,95.31
2017-12-24T01:49:11.420Z,95.50
2017-12-24T01:50:11.287Z,95.59
2017-12-24T01:51:11.157Z,95.21
2017-12-24T01:52:11.022Z,95.21
2017-12-24T01:53:10.888Z,95.12
2017-12-24T01:54:10.758Z,95.31
2017-12-24T01:55:10.625Z,95.78
2017-12-24T01:56:10.493Z,95.68
2017-12-24T01:57:10.362Z,95.21
2017-12-24T01:58:10.227Z,95.87
2017-12-24T01:59:10.098Z,95.12
2017-12-24T02:00:09.962Z,95.40
2017-12-24T02:01:09.835Z,96.35
2017-12-24T02:02:09.703Z,96.25
2017-12-24T02:03:09.566Z,95.78
2017-12-24T02:04:09.433Z,96.16
2017-12-24T02:05:09.301Z,95.21
2017-12-24T02:06:09.167Z,95.97
2017-12-24T02:07:09.036Z,95.21
2017-12-24T02:08:08.904Z,95.21
2017-12-24T02:09:08.770Z,95.31
2017-12-24T02:10:08.639Z,95.21
2017-12-24T02:11:08.506Z,95.21
2017-12-24T02:12:08.373Z,94.93
2017-12-24T02:13:08.244Z,95.40
2017-12-24T02:14:08.116Z,96.06
2017-12-24T02:15:07.978Z,95.31
2017-12-24T02:16:07.844Z,96.06
2017-12-24T02:17:07.713Z,95.40
2017-12-24T02:18:07.580Z,95.12
2017-12-24T02:19:07.449Z,95.21
2017-12-24T02:20:07.314Z,95.59
2017-12-24T02:21:07.184Z,95.31
2017-12-24T02:22:07.053Z,95.21
2017-12-24T02:23:06.920Z,94.84
2017-12-24T02:24:06.786Z,95.45
2017-12-24T02:25:06.652Z,95.87
2017-12-24T02:26:06.522Z,95.92
2017-12-24T02:27:06.395Z,95.78
2017-12-24T02:28:06.257Z,95.97
2017-12-24T02:29:06.124Z,95.40
2017-12-24T02:30:05.997Z,96.02
2017-12-24T02:31:05.862Z,95.83
2017-12-24T02:32:05.730Z,95.83
2017-12-24T02:33:05.596Z,95.36
2017-12-24T02:34:05.466Z,95.64
2017-12-24T02:35:05.335Z,95.45
2017-12-24T02:36:05.201Z,95.17
2017-12-24T02:37:05.069Z,95.73
2017-12-24T02:38:04.936Z,95.07
2017-12-24T02:39:04.804Z,95.17
2017-12-24T02:40:04.672Z,95.07
2017-12-24T02:41:04.540Z,96.02
2017-12-24T02:42:04.407Z,95.83
2017-12-24T02:43:04.276Z,95.92
2017-12-24T02:44:04.145Z,95.73
2017-12-24T02:45:04.010Z,95.36
2017-12-24T02:46:03.877Z,95.07
2017-12-24T02:47:03.743Z,94.22
2017-12-24T02:48:03.611Z,95.07
2017-12-24T02:49:03.480Z,95.26
2017-12-24T02:50:03.355Z,94.32
2017-12-24T02:51:03.218Z,94.13
2017-12-24T02:52:03.084Z,94.51
2017-12-24T02:53:02.952Z,94.41
2017-12-24T02:54:02.820Z,93.75
2017-12-24T02:55:02.697Z,93.66
2017-12-24T02:56:02.552Z,94.22
2017-12-24T02:57:02.424Z,94.22
2017-12-24T02:58:02.292Z,94.13
2017-12-24T02:59:02.162Z,94.03
2017-12-24T03:00:02.027Z,93.47
2017-12-24T03:01:01.895Z,93.47
2017-12-24T03:02:01.765Z,93.66
2017-12-24T03:03:01.630Z,93.28
2017-12-24T03:04:01.508Z,93.47
2017-12-24T03:05:01.365Z,94.22
2017-12-24T03:06:01.235Z,95.07
2017-12-24T03:07:01.101Z,95.07
2017-12-24T03:08:00.969Z,94.79
2017-12-24T03:09:00.838Z,95.26
2017-12-24T03:10:00.710Z,95.40
2017-12-24T03:11:00.573Z,95.45
2017-12-24T03:12:00.439Z,95.92
2017-12-24T03:13:00.308Z,95.45
2017-12-24T03:14:00.176Z,94.98
2017-12-24T03:15:00.045Z,94.89
2017-12-24T03:15:59.914Z,94.32
2017-12-24T03:16:59.779Z,94.60
2017-12-24T03:17:59.647Z,93.94
2017-12-24T03:18:59.515Z,93.66
2017-12-24T03:19:59.381Z,93.84
2017-12-24T03:20:59.250Z,94.70
2017-12-24T03:21:59.119Z,94.41
2017-12-24T03:22:58.990Z,93.94
2017-12-24T03:23:58.855Z,93.94
2017-12-24T03:24:58.722Z,94.32
2017-12-24T03:25:58.590Z,94.03
2017-12-24T03:26:58.458Z,93.84
2017-12-24T03:27:58.326Z,94.03
2017-12-24T03:28:58.194Z,94.60
2017-12-24T03:29:58.062Z,94.79
2017-12-24T03:30:57.931Z,94.22
2017-12-24T03:31:57.798Z,94.32
2017-12-24T03:32:57.666Z,94.60
2017-12-24T03:33:57.535Z,94.32
2017-12-24T03:34:57.405Z,94.32
2017-12-24T03:35:57.272Z,93.94
2017-12-24T03:36:57.139Z,94.51
2017-12-24T03:37:57.011Z,94.89
2017-12-24T03:38:56.872Z,95.17
2017-12-24T03:39:56.740Z,94.89
2017-12-24T03:40:56.610Z,95.36
2017-12-24T03:41:56.476Z,94.98
2017-12-24T03:42:56.345Z,94.22
2017-12-24T03:43:56.213Z,94.46
2017-12-24T03:44:56.080Z,94.65
2017-12-24T03:45:55.949Z,94.93
2017-12-24T03:46:55.815Z,94.18
2017-12-24T03:47:55.685Z,94.60
2017-12-24T03:48:55.552Z,93.84
2017-12-24T03:49:55.420Z,93.56
2017-12-24T03:50:55.290Z,93.66
2017-12-24T03:51:55.158Z,93.47
2017-12-24T03:52:55.024Z,92.80
2017-12-24T03:53:54.897Z,92.80
2017-12-24T03:54:54.762Z,92.99
2017-12-24T03:55:54.630Z,93.18
2017-12-24T03:56:54.498Z,93.47
2017-12-24T03:57:54.367Z,93.66
2017-12-24T03:58:54.234Z,94.13
2017-12-24T03:59:54.100Z,94.51
2017-12-24T04:00:53.969Z,94.32
2017-12-24T04:01:53.838Z,94.32
2017-12-24T04:02:53.705Z,94.03
2017-12-24T04:03:53.572Z,94.13
2017-12-24T04:04:53.440Z,93.75
2017-12-24T04:05:53.307Z,94.03
2017-12-24T04:06:53.176Z,93.75
2017-12-24T04:07:53.042Z,93.66
2017-12-24T04:08:52.914Z,93.37
2017-12-24T04:09:52.780Z,93.66
2017-12-24T04:10:52.649Z,93.37
2017-12-24T04:11:52.516Z,93.18
2017-12-24T04:12:52.387Z,92.80
2017-12-24T04:13:52.252Z,91.29
2017-12-24T04:14:52.118Z,91.20
2017-12-24T04:15:51.983Z,91.58
2017-12-24T04:16:51.853Z,91.39
2017-12-24T04:17:51.722Z,91.96
2017-12-24T04:18:51.590Z,92.80
2017-12-24T04:19:51.456Z,92.80
2017-12-24T04:20:51.327Z,92.90
2017-12-24T04:21:51.194Z,92.80
2017-12-24T04:22:51.062Z,92.90
2017-12-24T04:23:50.928Z,91.86
2017-12-24T04:24:50.795Z,91.77
2017-12-24T04:25:50.669Z,92.14
2017-12-24T04:26:50.531Z,91.96
2017-12-24T04:27:50.399Z,91.67
2017-12-24T04:28:50.267Z,92.33
2017-12-24T04:29:50.134Z,92.71
2017-12-24T04:30:50.006Z,92.90
2017-12-24T04:31:49.871Z,93.37
2017-12-24T04:32:49.741Z,92.99
2017-12-24T04:33:49.608Z,93.47
2017-12-24T04:34:49.476Z,93.37
2017-12-24T04:35:49.343Z,92.90
2017-12-24T04:36:49.212Z,92.90
2017-12-24T04:37:49.080Z,92.61
2017-12-24T04:38:48.948Z,92.43
2017-12-24T04:39:48.816Z,92.43
2017-12-24T04:40:48.705Z,93.56
2017-12-24T04:41:48.551Z,93.84
2017-12-24T04:42:48.421Z,94.41
2017-12-24T04:43:48.293Z,94.13
2017-12-24T04:44:48.156Z,94.03
2017-12-24T04:45:48.026Z,94.51
2017-12-24T04:46:47.894Z,94.13
2017-12-24T04:47:47.758Z,93.37
2017-12-24T04:48:47.629Z,93.47
2017-12-24T04:49:47.494Z,93.28
2017-12-24T04:50:47.364Z,92.99
2017-12-24T04:51:47.231Z,93.56
2017-12-24T04:52:47.099Z,93.47
2017-12-24T04:53:46.967Z,92.99
2017-12-24T04:54:46.833Z,92.80
2017-12-24T04:55:46.705Z,92.43
2017-12-24T04:56:46.571Z,92.90
2017-12-24T04:57:46.440Z,93.18
2017-12-24T04:58:46.308Z,92.90
2017-12-24T04:59:46.177Z,92.80
2017-12-24T05:00:46.044Z,93.18
2017-12-24T05:01:45.909Z,92.61
2017-12-24T05:02:45.782Z,91.96
2017-12-24T05:03:45.648Z,92.05
2017-12-24T05:04:45.516Z,92.43
2017-12-24T05:05:45.384Z,92.71
2017-12-24T05:06:45.252Z,92.90
2017-12-24T05:07:45.133Z,92.99
2017-12-24T05:08:44.989Z,92.99
2017-12-24T05:09:44.856Z,92.14
2017-12-24T05:10:44.725Z,92.71
2017-12-24T05:11:44.592Z,92.52
2017-12-24T05:12:44.461Z,92.90
2017-12-24T05:13:44.328Z,92.71
2017-12-24T05:14:44.202Z,93.18
2017-12-24T05:15:44.064Z,92.90
2017-12-24T05:16:43.932Z,92.90
2017-12-24T05:17:43.807Z,92.80
2017-12-24T05:18:43.669Z,93.09
2017-12-24T05:19:43.535Z,92.71
2017-12-24T05:20:43.405Z,92.99
2017-12-24T05:21:43.273Z,92.80
2017-12-24T05:22:43.141Z,93.18
2017-12-24T05:23:43.010Z,92.99
2017-12-24T05:24:42.879Z,92.90
2017-12-24T05:25:42.744Z,92.52
2017-12-24T05:26:42.616Z,92.05
2017-12-24T05:27:42.487Z,91.86
2017-12-24T05:28:42.350Z,91.20
2017-12-24T05:29:42.217Z,91.10
2017-12-24T05:30:42.085Z,91.96
2017-12-24T05:31:41.953Z,92.05
2017-12-24T05:32:41.822Z,92.14
2017-12-24T05:33:41.692Z,92.61
2017-12-24T05:34:41.558Z,91.86
2017-12-24T05:35:41.426Z,91.86
2017-12-24T05:36:41.292Z,91.10
2017-12-24T05:37:41.164Z,91.67
2017-12-24T05:38:41.030Z,91.58
2017-12-24T05:39:40.895Z,92.05
2017-12-24T05:40:40.770Z,91.77
2017-12-24T05:41:40.636Z,91.67
2017-12-24T05:42:40.505Z,91.29
2017-12-24T05:43:40.372Z,91.29
2017-12-24T05:44:40.247Z,90.44
2017-12-24T05:45:40.105Z,90.06
2017-12-24T05:46:39.975Z,89.50
2017-12-24T05:47:39.842Z,90.25
2017-12-24T05:48:39.712Z,90.82
2017-12-24T05:49:39.580Z,91.39
2017-12-24T05:50:39.447Z,89.87
2017-12-24T05:51:39.316Z,89.59
2017-12-24T05:52:39.183Z,87.89
2017-12-24T05:53:39.051Z,88.27
2017-12-24T05:54:38.922Z,84.34
2017-12-24T05:55:38.795Z,83.40
2017-12-24T05:56:38.663Z,84.20
2017-12-24T05:57:38.523Z,85.34
2017-12-24T05:58:38.392Z,87.70
2017-12-24T05:59:38.260Z,89.12
2017-12-24T06:00:38.129Z,91.01
2017-12-24T06:01:37.997Z,91.48
2017-12-24T06:02:37.870Z,91.86
2017-12-24T06:03:37.733Z,92.43
2017-12-24T06:04:37.600Z,92.71
2017-12-24T06:05:37.468Z,91.86
2017-12-24T06:06:37.340Z,91.86
2017-12-24T06:07:37.204Z,91.86
2017-12-24T06:08:37.074Z,91.01
2017-12-24T06:09:36.941Z,91.77
2017-12-24T06:10:36.809Z,91.58
2017-12-24T06:11:36.676Z,91.67
2017-12-24T06:12:36.549Z,92.14
2017-12-24T06:13:36.415Z,91.77
2017-12-24T06:14:36.285Z,91.58
2017-12-24T06:15:36.150Z,92.33
2017-12-24T06:16:36.019Z,92.52
2017-12-24T06:17:35.888Z,92.71
2017-12-24T06:18:35.753Z,92.43
2017-12-24T06:19:35.625Z,92.52
2017-12-24T06:20:35.490Z,91.77
2017-12-24T06:21:35.359Z,91.67
2017-12-24T06:22:35.227Z,91.48
2017-12-24T06:23:35.094Z,92.24
2017-12-24T06:24:34.962Z,92.24
2017-12-24T06:25:34.838Z,91.77
2017-12-24T06:26:34.699Z,91.20
2017-12-24T06:27:34.567Z,91.67
2017-12-24T06:28:34.435Z,91.20
2017-12-24T06:29:34.302Z,91.58
2017-12-24T06:30:34.169Z,91.77
2017-12-24T06:31:34.039Z,91.67
2017-12-24T06:32:33.906Z,90.82
2017-12-24T06:33:33.775Z,91.10
2017-12-24T06:34:33.644Z,91.58
2017-12-24T06:35:33.518Z,91.58
2017-12-24T06:36:33.382Z,91.20
2017-12-24T06:37:33.247Z,91.48
2017-12-24T06:38:33.116Z,91.29
2017-12-24T06:39:32.983Z,90.82
2017-12-24T06:40:32.851Z,90.82
2017-12-24T06:41:32.719Z,91.48
2017-12-24T06:42:32.588Z,92.33
2017-12-24T06:43:32.456Z,91.86
2017-12-24T06:44:32.323Z,91.67
2017-12-24T06:45:32.191Z,91.77
2017-12-24T06:46:32.060Z,91.39
2017-12-24T06:47:31.928Z,91.48
2017-12-24T06:48:31.797Z,91.58
2017-12-24T06:49:31.665Z,91.48
2017-12-24T06:50:31.532Z,90.06
2017-12-24T06:51:31.400Z,89.50
2017-12-24T06:52:31.269Z,87.42
2017-12-24T06:53:31.138Z,86.23
2017-12-24T06:54:31.004Z,84.44
2017-12-24T06:55:30.874Z,82.54
2017-12-24T06:56:30.742Z,82.64
2017-12-24T06:57:30.609Z,84.44
2017-12-24T06:58:30.477Z,85.34
2017-12-24T06:59:30.344Z,84.86
2017-12-24T07:00:30.211Z,86.85
2017-12-24T07:01:30.082Z,88.27
2017-12-24T07:02:29.949Z,86.94
2017-12-24T07:03:29.835Z,87.51
2017-12-24T07:04:29.689Z,88.74
2017-12-24T07:05:29.559Z,88.17
2017-12-24T07:06:29.423Z,88.84
2017-12-24T07:07:29.290Z,89.31
2017-12-24T07:08:29.155Z,88.93
2017-12-24T07:09:29.023Z,89.69
2017-12-24T07:10:28.894Z,89.78
2017-12-24T07:11:28.760Z,90.35
2017-12-24T07:12:28.628Z,90.63
2017-12-24T07:13:28.499Z,90.54
2017-12-24T07:14:28.371Z,90.82
2017-12-24T07:15:28.232Z,91.10
2017-12-24T07:16:28.100Z,91.10
2017-12-24T07:17:27.970Z,90.54
2017-12-24T07:18:27.841Z,90.44
2017-12-24T07:19:27.704Z,90.44
2017-12-24T07:20:27.576Z,90.91
2017-12-24T07:21:27.442Z,90.63
2017-12-24T07:22:27.310Z,90.91
2017-12-24T07:23:27.177Z,90.54
2017-12-24T07:24:27.086Z,90.54
2017-12-24T07:25:26.913Z,91.20
2017-12-24T07:26:26.784Z,91.48
2017-12-24T07:27:26.653Z,91.39
2017-12-24T07:28:26.517Z,91.86
2017-12-24T07:29:26.479Z,91.20
2017-12-24T07:30:26.258Z,91.67
2017-12-24T07:31:26.127Z,91.58
2017-12-24T07:32:25.994Z,91.39
2017-12-24T07:33:25.862Z,90.82
2017-12-24T07:34:25.731Z,91.10
2017-12-24T07:35:25.598Z,90.91
2017-12-24T07:36:25.467Z,90.82
2017-12-24T07:37:25.334Z,90.63
2017-12-24T07:38:25.211Z,90.91
2017-12-24T07:39:25.071Z,90.91
2017-12-24T07:40:24.941Z,90.25
2017-12-24T07:41:24.809Z,89.87
2017-12-24T07:42:24.677Z,89.59
2017-12-24T07:43:24.544Z,89.40
2017-12-24T07:44:24.415Z,90.35
2017-12-24T07:45:24.290Z,90.91
2017-12-24T07:46:24.156Z,91.20
2017-12-24T07:47:24.018Z,90.82
2017-12-24T07:48:23.885Z,90.25
2017-12-24T07:49:23.756Z,90.44
2017-12-24T07:50:23.628Z,91.01
2017-12-24T07:51:23.489Z,90.73
2017-12-24T07:52:23.361Z,90.63
2017-12-24T07:53:23.228Z,90.91
2017-12-24T07:54:23.097Z,91.39
2017-12-24T07:55:22.991Z,91.10
2017-12-24T07:56:22.835Z,90.54
2017-12-24T07:57:22.703Z,90.54
2017-12-24T07:58:22.572Z,89.87
2017-12-24T07:59:22.439Z,89.59
2017-12-24T08:00:22.309Z,89.87
2017-12-24T08:01:22.177Z,89.97
2017-12-24T08:02:22.045Z,90.44
2017-12-24T08:03:21.912Z,90.16
2017-12-24T08:04:21.782Z,89.78
2017-12-24T08:05:21.650Z,89.97
2017-12-24T08:06:21.518Z,89.31
2017-12-24T08:07:21.438Z,88.65
2017-12-24T08:08:21.256Z,88.12
2017-12-24T08:09:21.125Z,87.93
2017-12-24T08:10:20.994Z,88.88
2017-12-24T08:11:20.858Z,89.45
2017-12-24T08:12:20.731Z,89.92
2017-12-24T08:13:20.597Z,90.54
2017-12-24T08:14:20.468Z,90.63
2017-12-24T08:15:20.334Z,90.16
2017-12-24T08:16:20.203Z,90.16
2017-12-24T08:17:20.072Z,90.30
2017-12-24T08:18:19.939Z,90.01
2017-12-24T08:19:19.809Z,89.64
2017-12-24T08:20:19.677Z,89.17
2017-12-24T08:21:19.552Z,89.36
2017-12-24T08:22:19.412Z,90.01
2017-12-24T08:23:19.281Z,89.97
2017-12-24T08:24:19.155Z,89.97
2017-12-24T08:25:19.019Z,89.17
2017-12-24T08:26:18.904Z,89.07
2017-12-24T08:27:18.756Z,89.45
2017-12-24T08:28:18.626Z,89.17
2017-12-24T08:29:18.508Z,89.54
2017-12-24T08:30:18.363Z,89.83
2017-12-24T08:31:18.235Z,88.69
2017-12-24T08:32:18.099Z,88.88
2017-12-24T08:33:17.968Z,87.74
2017-12-24T08:34:17.836Z,88.03
2017-12-24T08:35:17.704Z,88.79
2017-12-24T08:36:17.576Z,88.88
2017-12-24T08:37:17.498Z,88.31
2017-12-24T08:38:17.312Z,87.74
2017-12-24T08:39:17.178Z,87.37
2017-12-24T08:40:17.050Z,87.55
2017-12-24T08:41:16.916Z,87.55
2017-12-24T08:42:16.789Z,88.03
2017-12-24T08:43:16.653Z,88.31
2017-12-24T08:44:16.523Z,89.17
2017-12-24T08:45:16.394Z,88.79
2017-12-24T08:46:16.266Z,89.54
2017-12-24T08:47:16.131Z,89.45
2017-12-24T08:48:15.999Z,89.17
2017-12-24T08:49:15.868Z,89.54
2017-12-24T08:50:15.743Z,89.73
2017-12-24T08:51:15.608Z,89.92
2017-12-24T08:52:15.474Z,89.92
2017-12-24T08:53:15.343Z,89.17
2017-12-24T08:54:15.213Z,89.07
2017-12-24T08:55:15.095Z,89.54
2017-12-24T08:56:14.950Z,89.17
2017-12-24T08:57:14.818Z,88.12
2017-12-24T08:58:14.689Z,86.71
2017-12-24T08:59:14.556Z,85.38
2017-12-24T09:00:14.423Z,85.00
2017-12-24T09:01:14.293Z,85.19
2017-12-24T09:02:14.164Z,85.38
2017-12-24T09:03:14.134Z,83.02
2017-12-24T09:04:13.936Z,80.13
2017-12-24T09:05:13.769Z,78.61
2017-12-24T09:06:13.639Z,82.07
2017-12-24T09:07:13.508Z,81.64
2017-12-24T09:08:13.410Z,80.98
2017-12-24T09:09:13.245Z,83.11
2017-12-24T09:10:13.114Z,85.00
2017-12-24T09:11:12.981Z,86.42
2017-12-24T09:12:12.853Z,87.18
2017-12-24T09:13:12.723Z,87.93
2017-12-24T09:14:12.590Z,87.93
2017-12-24T09:15:12.458Z,88.12
2017-12-24T09:16:12.326Z,88.12
2017-12-24T09:17:12.194Z,87.74
2017-12-24T09:18:12.066Z,86.71
2017-12-24T09:19:11.933Z,86.80
2017-12-24T09:20:11.801Z,87.18
2017-12-24T09:21:11.673Z,86.99
2017-12-24T09:22:11.541Z,86.42
2017-12-24T09:23:11.408Z,85.71
2017-12-24T09:24:11.279Z,85.61
2017-12-24T09:25:11.150Z,85.05
2017-12-24T09:26:11.017Z,85.14
2017-12-24T09:27:10.885Z,83.82
2017-12-24T09:28:10.754Z,84.29
2017-12-24T09:29:10.626Z,83.44
2017-12-24T09:30:10.496Z,82.59
2017-12-24T09:31:10.363Z,80.22
2017-12-24T09:32:10.235Z,78.90
2017-12-24T09:33:10.102Z,77.67
2017-12-24T09:34:09.971Z,75.31
2017-12-24T09:35:09.841Z,73.98
2017-12-24T09:36:09.708Z,71.74
2017-12-24T09:37:09.578Z,70.89
2017-12-24T09:38:09.448Z,69.85
2017-12-24T09:39:09.318Z,70.42
2017-12-24T09:40:09.233Z,70.51
2017-12-24T09:41:09.057Z,70.61
2017-12-24T09:42:08.926Z,71.46
2017-12-24T09:43:08.797Z,68.90
2017-12-24T09:44:08.668Z,66.92
2017-12-24T09:45:08.535Z,65.25
2017-12-24T09:46:08.406Z,65.25
2017-12-24T09:47:08.276Z,64.68
2017-12-24T09:48:08.144Z,64.23
2017-12-24T09:49:08.022Z,64.14
2017-12-24T09:50:07.890Z,64.14
2017-12-24T09:51:07.758Z,63.10
2017-12-24T09:52:07.632Z,63.85
2017-12-24T09:53:07.500Z,63.04
2017-12-24T09:54:07.369Z,64.08
2017-12-24T09:55:07.238Z,62.85
2017-12-24T09:56:07.113Z,60.13
2017-12-24T09:57:06.984Z,60.50
2017-12-24T09:58:06.858Z,60.50
2017-12-24T09:59:06.729Z,59.66
2017-12-24T10:00:06.601Z,60.79
2017-12-24T10:01:06.474Z,61.30
2017-12-24T10:02:06.346Z,59.68
2017-12-24T10:03:06.221Z,58.73
2017-12-24T10:04:06.090Z,57.79
2017-12-24T10:05:05.967Z,57.43
2017-12-24T10:06:05.838Z,56.39
2017-12-24T10:07:05.710Z,56.77
2017-12-24T10:08:05.588Z,55.82
2017-12-24T10:09:05.463Z,54.30
2017-12-24T10:10:05.339Z,54.02
2017-12-24T10:11:05.213Z,53.92
2017-12-24T10:12:05.084Z,54.58
2017-12-24T10:13:04.956Z,54.97
2017-12-24T10:14:04.830Z,55.57
2017-12-24T10:15:04.703Z,54.52
2017-12-24T10:16:04.622Z,54.71
2017-12-24T10:17:04.455Z,53.22
2017-12-24T10:18:04.331Z,52.74
2017-12-24T10:19:04.207Z,51.98
2017-12-24T10:20:04.083Z,51.31
2017-12-24T10:21:03.956Z,50.93
2017-12-24T10:22:03.834Z,50.65
2017-12-24T10:23:03.708Z,49.98
2017-12-24T10:24:03.612Z,49.98
2017-12-24T10:25:03.459Z,50.18
2017-12-24T10:26:03.336Z,49.79
2017-12-24T10:27:03.214Z,48.68
2017-12-24T10:28:03.093Z,48.77
2017-12-24T10:29:02.967Z,48.58
2017-12-24T10:30:02.843Z,47.34
2017-12-24T10:31:02.717Z,47.63
2017-12-24T10:32:02.597Z,47.16
2017-12-24T10:33:02.473Z,46.11
2017-12-24T10:34:02.350Z,45.16
2017-12-24T10:35:02.243Z,44.49
2017-12-24T10:36:02.115Z,45.92
2017-12-24T10:37:01.980Z,47.04
2017-12-24T10:38:01.859Z,48.68
2017-12-24T10:39:01.734Z,46.99
2017-12-24T10:40:01.614Z,46.23
2017-12-24T10:41:01.491Z,46.44
2017-12-24T10:42:01.370Z,45.87
2017-12-24T10:43:01.246Z,45.95
2017-12-24T10:44:01.124Z,46.89
2017-12-24T10:45:00.999Z,46.14
2017-12-24T10:46:00.878Z,46.42
2017-12-24T10:47:00.755Z,48.99
2017-12-24T10:48:00.634Z,47.37
2017-12-24T10:49:00.510Z,45.37
2017-12-24T10:50:00.390Z,45.73
2017-12-24T10:51:00.265Z,46.51
2017-12-24T10:52:00.145Z,45.30
2017-12-24T10:53:00.030Z,44.35
2017-12-24T10:53:59.901Z,43.87
2017-12-24T10:54:59.793Z,45.68
2017-12-24T10:55:59.653Z,47.09
2017-12-24T10:56:59.536Z,48.61
2017-12-24T10:57:59.413Z,47.75
2017-12-24T10:58:59.292Z,46.63
2017-12-24T10:59:59.170Z,44.92
2017-12-24T11:00:59.046Z,44.56
2017-12-24T11:01:58.925Z,43.51
2017-12-24T11:02:58.802Z,43.49
2017-12-24T11:03:58.684Z,44.35
2017-12-24T11:04:58.561Z,44.13
2017-12-24T11:05:58.436Z,45.49
2017-12-24T11:06:58.314Z,45.01
2017-12-24T11:07:58.195Z,43.97
2017-12-24T11:08:58.070Z,43.87
2017-12-24T11:09:57.950Z,43.32
2017-12-24T11:10:57.827Z,42.56
2017-12-24T11:11:57.703Z,42.49
2017-12-24T11:12:57.583Z,43.32
2017-12-24T11:13:57.457Z,41.52
2017-12-24T11:14:57.341Z,42.07
2017-12-24T11:15:57.216Z,43.42
2017-12-24T11:16:57.097Z,43.04
2017-12-24T11:17:56.971Z,42.76
2017-12-24T11:18:56.851Z,43.42
2017-12-24T11:19:56.730Z,43.42
2017-12-24T11:20:56.607Z,43.51
2017-12-24T11:21:56.483Z,43.42
2017-12-24T11:22:56.361Z,42.66
2017-12-24T11:23:56.239Z,43.51
2017-12-24T11:24:56.119Z,43.71
2017-12-24T11:25:55.995Z,43.59
2017-12-24T11:26:55.874Z,43.32
2017-12-24T11:27:55.752Z,43.42
2017-12-24T11:28:55.637Z,43.16
2017-12-24T11:29:55.506Z,43.23
2017-12-24T11:30:55.386Z,43.63
2017-12-24T11:31:55.263Z,43.44
2017-12-24T11:32:55.143Z,43.35
2017-12-24T11:33:55.021Z,43.73
2017-12-24T11:34:54.897Z,42.77
2017-12-24T11:35:54.777Z,42.87
2017-12-24T11:36:54.655Z,43.73
2017-12-24T11:37:54.534Z,44.30
2017-12-24T11:38:54.414Z,44.11
2017-12-24T11:39:54.291Z,44.94
2017-12-24T11:40:54.172Z,45.14
2017-12-24T11:41:54.048Z,46.06
2017-12-24T11:42:53.928Z,45.87
2017-12-24T11:43:53.808Z,46.54
2017-12-24T11:44:53.684Z,46.35
2017-12-24T11:45:53.579Z,46.33
2017-12-24T11:46:53.440Z,45.97
2017-12-24T11:47:53.327Z,48.25
2017-12-24T11:48:53.195Z,48.82
2017-12-24T11:49:53.073Z,45.97
2017-12-24T11:50:52.951Z,45.61
2017-12-24T11:51:52.830Z,48.27
2017-12-24T11:52:52.711Z,49.90
2017-12-24T11:53:52.587Z,49.44
2017-12-24T11:54:52.464Z,48.56
2017-12-24T11:55:52.345Z,48.75
2017-12-24T11:56:52.226Z,50.35
2017-12-24T11:57:52.102Z,52.15
2017-12-24T11:58:51.985Z,52.53
2017-12-24T11:59:51.856Z,51.87
2017-12-24T12:00:51.743Z,50.85
2017-12-24T12:01:51.614Z,50.46
2017-12-24T12:02:51.490Z,50.11
2017-12-24T12:03:51.371Z,49.26
2017-12-24T12:04:51.250Z,47.04
2017-12-24T12:05:51.126Z,46.37
2017-12-24T12:06:51.004Z,47.25
2017-12-24T12:07:50.884Z,47.23
2017-12-24T12:08:50.760Z,46.56
2017-12-24T12:09:50.639Z,46.66
2017-12-24T12:10:50.521Z,46.56
2017-12-24T12:11:50.397Z,45.80
2017-12-24T12:12:50.274Z,45.78
2017-12-24T12:13:50.153Z,46.44
2017-12-24T12:14:50.034Z,47.11
2017-12-24T12:15:49.909Z,47.52
2017-12-24T12:16:49.786Z,47.13
2017-12-24T12:17:49.666Z,47.61
2017-12-24T12:18:49.540Z,50.01
2017-12-24T12:19:49.419Z,47.42
2017-12-24T12:20:49.302Z,47.39
2017-12-24T12:21:49.194Z,48.61
2017-12-24T12:22:49.053Z,50.42
2017-12-24T12:23:48.933Z,52.32
2017-12-24T12:24:48.811Z,52.22
2017-12-24T12:25:48.690Z,52.41
2017-12-24T12:26:48.565Z,53.36
2017-12-24T12:27:48.458Z,53.46
2017-12-24T12:28:48.324Z,54.03
2017-12-24T12:29:48.204Z,52.98
2017-12-24T12:30:48.077Z,53.30
2017-12-24T12:31:47.956Z,53.11
2017-12-24T12:32:47.833Z,52.82
2017-12-24T12:33:47.711Z,51.78
2017-12-24T12:34:47.588Z,51.51
2017-12-24T12:35:47.465Z,51.68
2017-12-24T12:36:47.342Z,52.22
2017-12-24T12:37:47.221Z,53.17
2017-12-24T12:38:47.098Z,54.32
2017-12-24T12:39:46.977Z,54.22
2017-12-24T12:40:46.855Z,53.30
2017-12-24T12:41:46.734Z,51.39
2017-12-24T12:42:46.610Z,51.30
2017-12-24T12:43:46.492Z,51.49
2017-12-24T12:44:46.368Z,52.15
2017-12-24T12:45:46.248Z,53.01
2017-12-24T12:46:46.121Z,52.44
2017-12-24T12:47:46.001Z,52.53
2017-12-24T12:48:45.875Z,52.63
2017-12-24T12:49:45.754Z,53.49
2017-12-24T12:50:45.630Z,54.53